Zhengzhou Xinzheng International Airport

Airport
ICAO code: 
ZHCC
IATA Code: 
CGO
Summary
ICAO Region: 
APAC
Territory: 
Location: 
Xinzheng, Zhengzhou, Henan
Serving: 
Zhengzhou
Elevation: 
151 ft
Coordinates: 
Aerial View: 
34° 31' 10.999" N, 113° 50' 26.999" E
Metar
Observation
ZHCC 021800Z 30006MPS CAVOK 10/M11 Q1023 NOSIG
Station
Zhengzhou
Date/Time
2021-12-02 18:00:00
Wind direction
300°
Lowest cloud amount
clouds and visibility OK
Temperature
10°C
Dew point
-11°C
Humidity
21%
QNH
1023 hPa
Weather condition
n/a

Description

Zhengzhou Xinzheng International Airport is the principal airport of Zhengzhou, Henan Province, People's Republic of China.

Climatology

Humid subtropical climate (Köppen climate classification Cfa.) Hot muggy summers with frequent thunderstorms. Winters are mild and precipitation during this season comes from mid-latitude cyclones. This climate type is quite common on the east coasts of continents.

Runways

Designator Length Width Surface Rops
12/30 3400 60 CON Yes/Yes
Airport map: 
Aerial View: 

SKYbrary Partners:

Safety knowledge contributed by: